sensor_id;sensor_type;location;lat;lon;timestamp;temperature;humidity
612;DHT22;293;53.888;11.464;2023-03-01T00:01:55;0.40;99.90
612;DHT22;293;53.888;11.464;2023-03-01T00:04:22;0.40;99.90
612;DHT22;293;53.888;11.464;2023-03-01T00:06:51;0.40;99.90
612;DHT22;293;53.888;11.464;2023-03-01T00:09:18;0.40;99.90
612;DHT22;293;53.888;11.464;2023-03-01T00:11:45;0.40;99.90
612;DHT22;293;53.888;11.464;2023-03-01T00:14:12;0.40;99.90
612;DHT22;293;53.888;11.464;2023-03-01T00:16:41;0.40;99.90
612;DHT22;293;53.888;11.464;2023-03-01T00:19:11;0.40;99.90
612;DHT22;293;53.888;11.464;2023-03-01T00:21:38;0.40;99.90
612;DHT22;293;53.888;11.464;2023-03-01T00:24:07;0.40;99.90
612;DHT22;293;53.888;11.464;2023-03-01T00:26:34;0.50;99.90
612;DHT22;293;53.888;11.464;2023-03-01T00:29:01;0.50;99.90
612;DHT22;293;53.888;11.464;2023-03-01T00:31:30;0.50;99.90
612;DHT22;293;53.888;11.464;2023-03-01T00:33:59;0.50;99.90
612;DHT22;293;53.888;11.464;2023-03-01T00:36:30;0.40;99.90
612;DHT22;293;53.888;11.464;2023-03-01T00:38:57;0.50;99.90
612;DHT22;293;53.888;11.464;2023-03-01T00:41:25;0.40;99.90
612;DHT22;293;53.888;11.464;2023-03-01T00:43:53;0.40;99.90
612;DHT22;293;53.888;11.464;2023-03-01T00:46:21;0.40;99.90
612;DHT22;293;53.888;11.464;2023-03-01T00:48:48;0.40;99.90
612;DHT22;293;53.888;11.464;2023-03-01T00:51:17;0.40;99.90
612;DHT22;293;53.888;11.464;2023-03-01T00:53:45;0.40;99.90
612;DHT22;293;53.888;11.464;2023-03-01T00:56:14;0.40;99.90
612;DHT22;293;53.888;11.464;2023-03-01T00:58:42;0.30;99.90
612;DHT22;293;53.888;11.464;2023-03-01T01:01:09;0.30;99.90
612;DHT22;293;53.888;11.464;2023-03-01T01:03:44;0.30;99.90
612;DHT22;293;53.888;11.464;2023-03-01T01:06:15;0.30;99.90
612;DHT22;293;53.888;11.464;2023-03-01T01:08:42;0.40;99.90
612;DHT22;293;53.888;11.464;2023-03-01T01:11:11;0.40;99.90
612;DHT22;293;53.888;11.464;2023-03-01T01:13:39;0.40;99.90
612;DHT22;293;53.888;11.464;2023-03-01T01:16:08;0.40;99.90
612;DHT22;293;53.888;11.464;2023-03-01T01:18:35;0.40;99.90
612;DHT22;293;53.888;11.464;2023-03-01T01:21:07;0.40;99.90
612;DHT22;293;53.888;11.464;2023-03-01T01:23:34;0.30;99.90
612;DHT22;293;53.888;11.464;2023-03-01T01:26:06;0.30;99.90
612;DHT22;293;53.888;11.464;2023-03-01T01:28:33;0.30;99.90
612;DHT22;293;53.888;11.464;2023-03-01T01:31:00;0.30;99.90
612;DHT22;293;53.888;11.464;2023-03-01T01:33:28;0.30;99.90
612;DHT22;293;53.888;11.464;2023-03-01T01:35:55;0.30;99.90
612;DHT22;293;53.888;11.464;2023-03-01T01:38:23;0.30;99.90
612;DHT22;293;53.888;11.464;2023-03-01T01:40:51;0.30;99.90
612;DHT22;293;53.888;11.464;2023-03-01T01:43:21;0.20;99.90
612;DHT22;293;53.888;11.464;2023-03-01T01:45:49;0.20;99.90
612;DHT22;293;53.888;11.464;2023-03-01T01:48:19;0.20;99.90
612;DHT22;293;53.888;11.464;2023-03-01T01:50:55;0.20;99.90
612;DHT22;293;53.888;11.464;2023-03-01T01:53:24;0.20;99.90
612;DHT22;293;53.888;11.464;2023-03-01T01:55:55;0.20;99.90
612;DHT22;293;53.888;11.464;2023-03-01T01:58:24;0.10;99.90
612;DHT22;293;53.888;11.464;2023-03-01T02:00:53;0.10;99.90
612;DHT22;293;53.888;11.464;2023-03-01T02:03:24;0.10;99.90
612;DHT22;293;53.888;11.464;2023-03-01T02:05:58;0.00;99.90
612;DHT22;293;53.888;11.464;2023-03-01T02:08:28;0.00;99.90
612;DHT22;293;53.888;11.464;2023-03-01T02:10:57;0.00;99.90
612;DHT22;293;53.888;11.464;2023-03-01T02:13:25;0.00;99.90
612;DHT22;293;53.888;11.464;2023-03-01T02:15:52;0.00;99.90
612;DHT22;293;53.888;11.464;2023-03-01T02:18:21;0.00;99.90
612;DHT22;293;53.888;11.464;2023-03-01T02:20:56;0.00;99.90
612;DHT22;293;53.888;11.464;2023-03-01T02:23:27;0.10;99.90
612;DHT22;293;53.888;11.464;2023-03-01T02:25:59;0.10;99.90
612;DHT22;293;53.888;11.464;2023-03-01T02:28:31;0.10;99.90
612;DHT22;293;53.888;11.464;2023-03-01T02:30:59;0.10;99.90
612;DHT22;293;53.888;11.464;2023-03-01T02:33:44;0.10;99.90
612;DHT22;293;53.888;11.464;2023-03-01T02:36:17;0.10;99.90
612;DHT22;293;53.888;11.464;2023-03-01T02:38:46;0.10;99.90
612;DHT22;293;53.888;11.464;2023-03-01T02:41:16;0.10;99.90
612;DHT22;293;53.888;11.464;2023-03-01T02:43:47;0.10;99.90
612;DHT22;293;53.888;11.464;2023-03-01T02:46:16;0.10;99.90
612;DHT22;293;53.888;11.464;2023-03-01T02:48:45;0.10;99.90
612;DHT22;293;53.888;11.464;2023-03-01T02:51:34;0.10;99.90
612;DHT22;293;53.888;11.464;2023-03-01T02:54:11;0.10;99.90
612;DHT22;293;53.888;11.464;2023-03-01T02:56:40;0.10;99.90
612;DHT22;293;53.888;11.464;2023-03-01T02:59:09;0.10;99.90
612;DHT22;293;53.888;11.464;2023-03-01T03:01:37;0.00;99.90
612;DHT22;293;53.888;11.464;2023-03-01T03:04:04;0.00;99.90
612;DHT22;293;53.888;11.464;2023-03-01T03:06:32;0.00;99.90
612;DHT22;293;53.888;11.464;2023-03-01T03:08:59;0.00;99.90
612;DHT22;293;53.888;11.464;2023-03-01T03:11:26;0.10;99.90
612;DHT22;293;53.888;11.464;2023-03-01T03:13:53;0.00;99.90
612;DHT22;293;53.888;11.464;2023-03-01T03:16:21;0.10;99.90
612;DHT22;293;53.888;11.464;2023-03-01T03:18:48;0.00;99.90
612;DHT22;293;53.888;11.464;2023-03-01T03:21:15;0.00;99.90
612;DHT22;293;53.888;11.464;2023-03-01T03:23:43;0.00;99.90
612;DHT22;293;53.888;11.464;2023-03-01T03:26:10;0.00;99.90
612;DHT22;293;53.888;11.464;2023-03-01T03:28:40;0.00;99.90
612;DHT22;293;53.888;11.464;2023-03-01T03:31:08;0.00;99.90
612;DHT22;293;53.888;11.464;2023-03-01T03:33:36;0.00;99.90
612;DHT22;293;53.888;11.464;2023-03-01T03:36:04;0.00;99.90
612;DHT22;293;53.888;11.464;2023-03-01T03:38:31;0.00;99.90
612;DHT22;293;53.888;11.464;2023-03-01T03:41:03;0.00;99.90
612;DHT22;293;53.888;11.464;2023-03-01T03:43:31;0.00;99.90
612;DHT22;293;53.888;11.464;2023-03-01T03:45:59;0.00;99.90
612;DHT22;293;53.888;11.464;2023-03-01T03:48:26;0.00;99.90
612;DHT22;293;53.888;11.464;2023-03-01T03:50:56;0.00;99.90
612;DHT22;293;53.888;11.464;2023-03-01T03:53:25;0.00;99.90
612;DHT22;293;53.888;11.464;2023-03-01T03:55:53;0.00;99.90
612;DHT22;293;53.888;11.464;2023-03-01T03:58:21;0.00;99.90
612;DHT22;293;53.888;11.464;2023-03-01T04:00:50;0.00;99.90
612;DHT22;293;53.888;11.464;2023-03-01T04:03:18;0.00;99.90
612;DHT22;293;53.888;11.464;2023-03-01T04:05:46;0.00;99.90
612;DHT22;293;53.888;11.464;2023-03-01T04:08:17;0.00;99.90
612;DHT22;293;53.888;11.464;2023-03-01T04:10:47;-0.10;99.90
612;DHT22;293;53.888;11.464;2023-03-01T04:13:16;-0.10;99.90
612;DHT22;293;53.888;11.464;2023-03-01T04:15:45;-0.10;99.90
612;DHT22;293;53.888;11.464;2023-03-01T04:18:12;-0.20;99.90
612;DHT22;293;53.888;11.464;2023-03-01T04:20:40;-0.20;99.90
612;DHT22;293;53.888;11.464;2023-03-01T04:23:09;-0.20;99.90
612;DHT22;293;53.888;11.464;2023-03-01T04:25:45;-0.20;99.90
612;DHT22;293;53.888;11.464;2023-03-01T04:28:15;-0.30;99.90
612;DHT22;293;53.888;11.464;2023-03-01T04:30:42;-0.30;99.90
612;DHT22;293;53.888;11.464;2023-03-01T04:33:10;-0.30;99.90
612;DHT22;293;53.888;11.464;2023-03-01T04:35:37;-0.20;99.90
612;DHT22;293;53.888;11.464;2023-03-01T04:38:06;-0.20;99.90
612;DHT22;293;53.888;11.464;2023-03-01T04:40:33;-0.20;99.90
612;DHT22;293;53.888;11.464;2023-03-01T04:43:02;-0.20;99.90
612;DHT22;293;53.888;11.464;2023-03-01T04:45:29;-0.20;99.90
612;DHT22;293;53.888;11.464;2023-03-01T04:47:56;-0.10;99.90
612;DHT22;293;53.888;11.464;2023-03-01T04:50:24;-0.10;99.90
612;DHT22;293;53.888;11.464;2023-03-01T04:52:51;-0.10;99.90
612;DHT22;293;53.888;11.464;2023-03-01T04:55:18;-0.10;99.90
612;DHT22;293;53.888;11.464;2023-03-01T04:57:45;-0.10;99.90
612;DHT22;293;53.888;11.464;2023-03-01T05:00:14;-0.10;99.90
612;DHT22;293;53.888;11.464;2023-03-01T05:02:48;-0.10;99.90
612;DHT22;293;53.888;11.464;2023-03-01T05:05:19;-0.10;99.90
612;DHT22;293;53.888;11.464;2023-03-01T05:07:47;-0.10;99.90
612;DHT22;293;53.888;11.464;2023-03-01T05:10:14;-0.10;99.90
612;DHT22;293;53.888;11.464;2023-03-01T05:12:41;-0.10;99.90
612;DHT22;293;53.888;11.464;2023-03-01T05:15:08;-0.20;99.90
612;DHT22;293;53.888;11.464;2023-03-01T05:17:37;-0.20;99.90
612;DHT22;293;53.888;11.464;2023-03-01T05:20:05;-0.10;99.90
612;DHT22;293;53.888;11.464;2023-03-01T05:22:34;-0.10;99.90
612;DHT22;293;53.888;11.464;2023-03-01T05:25:01;-0.10;99.90
612;DHT22;293;53.888;11.464;2023-03-01T05:27:28;-0.10;99.90
612;DHT22;293;53.888;11.464;2023-03-01T05:29:55;-0.10;99.90
612;DHT22;293;53.888;11.464;2023-03-01T05:32:22;-0.10;99.90
612;DHT22;293;53.888;11.464;2023-03-01T05:34:50;0.00;99.90
612;DHT22;293;53.888;11.464;2023-03-01T05:37:17;0.00;99.90
612;DHT22;293;53.888;11.464;2023-03-01T05:39:45;0.00;99.90
612;DHT22;293;53.888;11.464;2023-03-01T05:42:12;0.10;99.90
612;DHT22;293;53.888;11.464;2023-03-01T05:44:38;0.10;99.90
612;DHT22;293;53.888;11.464;2023-03-01T05:47:06;0.10;99.90
612;DHT22;293;53.888;11.464;2023-03-01T05:49:33;0.10;99.90
612;DHT22;293;53.888;11.464;2023-03-01T05:52:01;0.10;99.90
612;DHT22;293;53.888;11.464;2023-03-01T05:54:28;0.20;99.90
612;DHT22;293;53.888;11.464;2023-03-01T05:56:55;0.10;99.90
612;DHT22;293;53.888;11.464;2023-03-01T05:59:22;0.10;99.90
612;DHT22;293;53.888;11.464;2023-03-01T06:01:49;0.10;99.90
612;DHT22;293;53.888;11.464;2023-03-01T06:04:16;0.10;99.90
612;DHT22;293;53.888;11.464;2023-03-01T06:06:43;0.10;99.90
612;DHT22;293;53.888;11.464;2023-03-01T06:09:12;0.20;99.90
612;DHT22;293;53.888;11.464;2023-03-01T06:11:39;0.10;99.90
612;DHT22;293;53.888;11.464;2023-03-01T06:14:07;0.10;99.90
612;DHT22;293;53.888;11.464;2023-03-01T06:16:36;0.10;99.90
612;DHT22;293;53.888;11.464;2023-03-01T06:19:02;0.10;99.90
612;DHT22;293;53.888;11.464;2023-03-01T06:21:29;0.10;99.90
612;DHT22;293;53.888;11.464;2023-03-01T06:23:56;0.10;99.90
612;DHT22;293;53.888;11.464;2023-03-01T06:26:24;0.20;99.90
612;DHT22;293;53.888;11.464;2023-03-01T06:28:54;0.30;99.90
612;DHT22;293;53.888;11.464;2023-03-01T06:31:23;0.30;99.90
612;DHT22;293;53.888;11.464;2023-03-01T06:33:50;0.40;99.90
612;DHT22;293;53.888;11.464;2023-03-01T06:36:17;0.40;99.90
612;DHT22;293;53.888;11.464;2023-03-01T06:38:46;0.40;99.90
612;DHT22;293;53.888;11.464;2023-03-01T06:41:13;0.50;99.90
612;DHT22;293;53.888;11.464;2023-03-01T06:43:41;0.50;99.90
612;DHT22;293;53.888;11.464;2023-03-01T06:46:08;0.60;99.90
612;DHT22;293;53.888;11.464;2023-03-01T06:48:35;0.60;99.90
612;DHT22;293;53.888;11.464;2023-03-01T06:51:02;0.70;99.90
612;DHT22;293;53.888;11.464;2023-03-01T06:53:29;0.80;99.90
612;DHT22;293;53.888;11.464;2023-03-01T06:55:57;0.90;99.90
612;DHT22;293;53.888;11.464;2023-03-01T06:58:25;0.90;99.90
612;DHT22;293;53.888;11.464;2023-03-01T07:00:54;0.90;99.90
612;DHT22;293;53.888;11.464;2023-03-01T07:03:21;1.00;99.90
612;DHT22;293;53.888;11.464;2023-03-01T07:05:48;1.10;99.90
612;DHT22;293;53.888;11.464;2023-03-01T07:08:17;1.20;99.90
612;DHT22;293;53.888;11.464;2023-03-01T07:10:44;1.20;99.90
612;DHT22;293;53.888;11.464;2023-03-01T07:13:10;1.30;99.90
612;DHT22;293;53.888;11.464;2023-03-01T07:15:39;1.40;99.90
612;DHT22;293;53.888;11.464;2023-03-01T07:18:08;1.50;99.90
612;DHT22;293;53.888;11.464;2023-03-01T07:20:35;1.50;99.90
612;DHT22;293;53.888;11.464;2023-03-01T07:23:01;1.60;99.90
612;DHT22;293;53.888;11.464;2023-03-01T07:25:28;1.60;99.90
612;DHT22;293;53.888;11.464;2023-03-01T07:27:55;1.70;99.90
612;DHT22;293;53.888;11.464;2023-03-01T07:30:22;1.70;99.90
612;DHT22;293;53.888;11.464;2023-03-01T07:32:51;1.80;99.90
612;DHT22;293;53.888;11.464;2023-03-01T07:35:20;1.90;99.90
612;DHT22;293;53.888;11.464;2023-03-01T07:37:47;1.90;99.90
612;DHT22;293;53.888;11.464;2023-03-01T07:40:14;2.00;99.90
612;DHT22;293;53.888;11.464;2023-03-01T07:42:41;2.00;99.90
612;DHT22;293;53.888;11.464;2023-03-01T07:45:08;2.00;99.90
612;DHT22;293;53.888;11.464;2023-03-01T07:47:36;2.10;99.90
612;DHT22;293;53.888;11.464;2023-03-01T07:50:03;2.10;99.90
612;DHT22;293;53.888;11.464;2023-03-01T07:52:32;2.20;99.90
612;DHT22;293;53.888;11.464;2023-03-01T07:54:59;2.20;99.90
612;DHT22;293;53.888;11.464;2023-03-01T07:57:25;2.30;99.90
612;DHT22;293;53.888;11.464;2023-03-01T07:59:52;2.40;99.90
612;DHT22;293;53.888;11.464;2023-03-01T08:02:19;2.50;99.90
612;DHT22;293;53.888;11.464;2023-03-01T08:04:46;2.50;99.90
612;DHT22;293;53.888;11.464;2023-03-01T08:07:13;2.60;99.90
612;DHT22;293;53.888;11.464;2023-03-01T08:09:41;2.60;99.90
612;DHT22;293;53.888;11.464;2023-03-01T08:12:08;2.70;99.90
612;DHT22;293;53.888;11.464;2023-03-01T08:14:35;2.70;99.90
612;DHT22;293;53.888;11.464;2023-03-01T08:17:02;2.70;99.90
612;DHT22;293;53.888;11.464;2023-03-01T08:19:29;2.80;99.90
612;DHT22;293;53.888;11.464;2023-03-01T08:21:56;2.80;99.90
612;DHT22;293;53.888;11.464;2023-03-01T08:24:25;2.80;99.90
612;DHT22;293;53.888;11.464;2023-03-01T08:26:54;2.90;99.90
612;DHT22;293;53.888;11.464;2023-03-01T08:29:21;2.90;99.90
612;DHT22;293;53.888;11.464;2023-03-01T08:31:50;2.90;99.90
612;DHT22;293;53.888;11.464;2023-03-01T08:34:18;3.00;99.90
612;DHT22;293;53.888;11.464;2023-03-01T08:36:46;3.10;99.90
612;DHT22;293;53.888;11.464;2023-03-01T08:39:15;3.20;99.90
612;DHT22;293;53.888;11.464;2023-03-01T08:41:42;3.20;99.90
612;DHT22;293;53.888;11.464;2023-03-01T08:44:12;3.30;99.90
612;DHT22;293;53.888;11.464;2023-03-01T08:46:40;3.40;99.90
612;DHT22;293;53.888;11.464;2023-03-01T08:49:10;3.40;99.90
612;DHT22;293;53.888;11.464;2023-03-01T08:51:38;3.50;99.90
612;DHT22;293;53.888;11.464;2023-03-01T08:54:06;3.60;99.90
612;DHT22;293;53.888;11.464;2023-03-01T08:56:33;3.60;99.90
612;DHT22;293;53.888;11.464;2023-03-01T08:59:00;3.60;99.90
612;DHT22;293;53.888;11.464;2023-03-01T09:01:28;3.80;99.90
612;DHT22;293;53.888;11.464;2023-03-01T09:03:55;3.90;99.90
612;DHT22;293;53.888;11.464;2023-03-01T09:06:22;4.00;99.90
612;DHT22;293;53.888;11.464;2023-03-01T09:08:50;4.00;99.90
612;DHT22;293;53.888;11.464;2023-03-01T09:11:19;4.20;99.90
612;DHT22;293;53.888;11.464;2023-03-01T09:13:47;4.20;99.90
612;DHT22;293;53.888;11.464;2023-03-01T09:16:16;4.30;99.90
612;DHT22;293;53.888;11.464;2023-03-01T09:18:44;4.40;99.90
612;DHT22;293;53.888;11.464;2023-03-01T09:21:14;4.40;99.90
612;DHT22;293;53.888;11.464;2023-03-01T09:23:43;4.40;99.90
612;DHT22;293;53.888;11.464;2023-03-01T09:26:12;4.50;99.90
612;DHT22;293;53.888;11.464;2023-03-01T09:28:40;4.60;99.90
612;DHT22;293;53.888;11.464;2023-03-01T09:31:07;4.60;99.90
612;DHT22;293;53.888;11.464;2023-03-01T09:33:34;4.60;99.90
612;DHT22;293;53.888;11.464;2023-03-01T09:36:05;4.70;99.90
612;DHT22;293;53.888;11.464;2023-03-01T09:38:33;4.80;99.90
612;DHT22;293;53.888;11.464;2023-03-01T09:41:00;4.80;99.90
612;DHT22;293;53.888;11.464;2023-03-01T09:43:34;4.90;99.90
612;DHT22;293;53.888;11.464;2023-03-01T09:46:07;4.90;99.90
612;DHT22;293;53.888;11.464;2023-03-01T09:48:41;4.90;99.90
612;DHT22;293;53.888;11.464;2023-03-01T09:51:15;4.80;99.90
612;DHT22;293;53.888;11.464;2023-03-01T09:53:45;4.80;99.90
612;DHT22;293;53.888;11.464;2023-03-01T09:56:17;4.90;99.90
612;DHT22;293;53.888;11.464;2023-03-01T09:58:52;4.80;99.90
612;DHT22;293;53.888;11.464;2023-03-01T10:01:28;4.70;99.90
612;DHT22;293;53.888;11.464;2023-03-01T10:04:17;4.80;99.90
612;DHT22;293;53.888;11.464;2023-03-01T10:06:51;4.80;99.90
612;DHT22;293;53.888;11.464;2023-03-01T10:09:21;4.90;99.90
612;DHT22;293;53.888;11.464;2023-03-01T10:11:51;4.90;99.90
612;DHT22;293;53.888;11.464;2023-03-01T10:14:29;4.90;99.90
612;DHT22;293;53.888;11.464;2023-03-01T10:17:01;4.90;99.90
612;DHT22;293;53.888;11.464;2023-03-01T10:19:32;4.90;99.90
612;DHT22;293;53.888;11.464;2023-03-01T10:22:09;4.90;99.90
612;DHT22;293;53.888;11.464;2023-03-01T10:24:37;4.90;99.90
612;DHT22;293;53.888;11.464;2023-03-01T10:27:09;4.90;99.90
612;DHT22;293;53.888;11.464;2023-03-01T10:29:49;4.90;99.90
612;DHT22;293;53.888;11.464;2023-03-01T10:32:18;4.90;99.90
612;DHT22;293;53.888;11.464;2023-03-01T10:34:47;4.90;99.90
612;DHT22;293;53.888;11.464;2023-03-01T10:37:18;4.90;99.90
612;DHT22;293;53.888;11.464;2023-03-01T10:39:58;4.90;99.90
612;DHT22;293;53.888;11.464;2023-03-01T10:42:30;5.10;99.90
612;DHT22;293;53.888;11.464;2023-03-01T10:44:58;5.30;99.90
612;DHT22;293;53.888;11.464;2023-03-01T10:47:40;5.50;99.90
612;DHT22;293;53.888;11.464;2023-03-01T10:50:18;5.70;99.90
612;DHT22;293;53.888;11.464;2023-03-01T10:52:58;5.90;99.90
612;DHT22;293;53.888;11.464;2023-03-01T10:55:30;5.80;99.90
612;DHT22;293;53.888;11.464;2023-03-01T10:58:15;5.80;99.90
612;DHT22;293;53.888;11.464;2023-03-01T11:00:49;5.90;99.90
612;DHT22;293;53.888;11.464;2023-03-01T11:03:19;5.90;99.90
612;DHT22;293;53.888;11.464;2023-03-01T11:06:03;5.80;99.90
612;DHT22;293;53.888;11.464;2023-03-01T11:08:36;5.90;99.90
612;DHT22;293;53.888;11.464;2023-03-01T11:11:07;5.90;99.90
612;DHT22;293;53.888;11.464;2023-03-01T11:13:49;6.00;99.90
612;DHT22;293;53.888;11.464;2023-03-01T11:16:24;6.10;99.90
612;DHT22;293;53.888;11.464;2023-03-01T11:19:13;6.00;99.90
612;DHT22;293;53.888;11.464;2023-03-01T11:21:44;6.00;99.90
612;DHT22;293;53.888;11.464;2023-03-01T11:24:16;6.00;99.90
612;DHT22;293;53.888;11.464;2023-03-01T11:26:47;6.00;99.90
612;DHT22;293;53.888;11.464;2023-03-01T11:29:21;6.00;99.90
612;DHT22;293;53.888;11.464;2023-03-01T11:31:51;6.00;99.90
612;DHT22;293;53.888;11.464;2023-03-01T11:34:27;6.00;99.90
612;DHT22;293;53.888;11.464;2023-03-01T11:36:58;5.80;99.90
612;DHT22;293;53.888;11.464;2023-03-01T11:39:31;5.90;99.90
612;DHT22;293;53.888;11.464;2023-03-01T11:42:06;5.90;99.90
612;DHT22;293;53.888;11.464;2023-03-01T11:44:38;5.90;99.90
612;DHT22;293;53.888;11.464;2023-03-01T11:47:17;6.00;99.90
612;DHT22;293;53.888;11.464;2023-03-01T11:50:04;6.20;99.90
612;DHT22;293;53.888;11.464;2023-03-01T11:52:41;6.10;99.90
612;DHT22;293;53.888;11.464;2023-03-01T11:55:25;6.10;99.90
612;DHT22;293;53.888;11.464;2023-03-01T11:58:13;6.10;99.90
612;DHT22;293;53.888;11.464;2023-03-01T12:03:52;6.00;99.90
612;DHT22;293;53.888;11.464;2023-03-01T12:06:32;6.00;99.90
612;DHT22;293;53.888;11.464;2023-03-01T12:09:13;6.00;99.90
612;DHT22;293;53.888;11.464;2023-03-01T12:12:00;5.90;99.90
612;DHT22;293;53.888;11.464;2023-03-01T12:17:48;6.00;99.90
612;DHT22;293;53.888;11.464;2023-03-01T12:20:25;6.10;99.90
612;DHT22;293;53.888;11.464;2023-03-01T12:23:16;6.20;99.90
612;DHT22;293;53.888;11.464;2023-03-01T12:25:50;6.30;99.90
612;DHT22;293;53.888;11.464;2023-03-01T12:28:52;6.30;99.90
612;DHT22;293;53.888;11.464;2023-03-01T12:34:25;6.20;99.90
612;DHT22;293;53.888;11.464;2023-03-01T12:37:11;6.10;99.90
612;DHT22;293;53.888;11.464;2023-03-01T12:39:48;6.20;99.90
612;DHT22;293;53.888;11.464;2023-03-01T12:42:26;6.00;99.90
612;DHT22;293;53.888;11.464;2023-03-01T12:45:22;5.90;99.90
612;DHT22;293;53.888;11.464;2023-03-01T12:48:03;5.70;99.90
612;DHT22;293;53.888;11.464;2023-03-01T12:50:38;5.70;99.90
612;DHT22;293;53.888;11.464;2023-03-01T12:53:22;5.60;99.90
612;DHT22;293;53.888;11.464;2023-03-01T12:55:50;5.50;99.90
612;DHT22;293;53.888;11.464;2023-03-01T12:58:25;5.50;99.90
612;DHT22;293;53.888;11.464;2023-03-01T13:01:07;5.30;99.90
612;DHT22;293;53.888;11.464;2023-03-01T13:03:56;5.20;99.90
612;DHT22;293;53.888;11.464;2023-03-01T13:06:32;5.20;99.90
612;DHT22;293;53.888;11.464;2023-03-01T13:09:08;5.10;99.90
612;DHT22;293;53.888;11.464;2023-03-01T13:11:42;5.00;99.90
612;DHT22;293;53.888;11.464;2023-03-01T13:14:36;5.10;99.90
612;DHT22;293;53.888;11.464;2023-03-01T13:17:33;5.10;99.90
612;DHT22;293;53.888;11.464;2023-03-01T13:20:13;5.10;99.90
612;DHT22;293;53.888;11.464;2023-03-01T13:22:40;5.20;99.90
612;DHT22;293;53.888;11.464;2023-03-01T13:25:16;5.20;99.90
612;DHT22;293;53.888;11.464;2023-03-01T13:27:44;5.20;99.90
612;DHT22;293;53.888;11.464;2023-03-01T13:30:40;5.10;99.90
612;DHT22;293;53.888;11.464;2023-03-01T13:33:37;5.10;99.90
612;DHT22;293;53.888;11.464;2023-03-01T13:36:07;5.10;99.90
612;DHT22;293;53.888;11.464;2023-03-01T13:38:47;5.10;99.90
612;DHT22;293;53.888;11.464;2023-03-01T13:41:16;5.00;99.90
612;DHT22;293;53.888;11.464;2023-03-01T13:43:44;5.00;99.90
612;DHT22;293;53.888;11.464;2023-03-01T13:46:17;4.90;99.90
612;DHT22;293;53.888;11.464;2023-03-01T13:48:50;5.00;99.90
612;DHT22;293;53.888;11.464;2023-03-01T13:51:21;5.10;99.90
612;DHT22;293;53.888;11.464;2023-03-01T13:53:49;5.20;99.90
612;DHT22;293;53.888;11.464;2023-03-01T13:56:19;5.20;99.90
612;DHT22;293;53.888;11.464;2023-03-01T13:58:49;5.10;99.90
612;DHT22;293;53.888;11.464;2023-03-01T14:01:26;5.20;99.90
612;DHT22;293;53.888;11.464;2023-03-01T14:03:54;5.20;99.90
612;DHT22;293;53.888;11.464;2023-03-01T14:06:23;5.10;99.90
612;DHT22;293;53.888;11.464;2023-03-01T14:09:02;5.10;99.90
612;DHT22;293;53.888;11.464;2023-03-01T14:11:56;5.20;99.90
612;DHT22;293;53.888;11.464;2023-03-01T14:14:41;5.30;99.90
612;DHT22;293;53.888;11.464;2023-03-01T14:17:26;5.30;99.90
612;DHT22;293;53.888;11.464;2023-03-01T14:20:00;5.40;99.90
612;DHT22;293;53.888;11.464;2023-03-01T14:22:33;5.30;99.90
612;DHT22;293;53.888;11.464;2023-03-01T14:25:02;5.20;99.90
612;DHT22;293;53.888;11.464;2023-03-01T14:27:34;5.10;99.90
612;DHT22;293;53.888;11.464;2023-03-01T14:30:10;5.00;99.90
612;DHT22;293;53.888;11.464;2023-03-01T14:32:39;4.80;99.90
612;DHT22;293;53.888;11.464;2023-03-01T14:35:20;4.70;99.90
612;DHT22;293;53.888;11.464;2023-03-01T14:37:48;4.60;99.90
612;DHT22;293;53.888;11.464;2023-03-01T14:40:22;4.50;99.90
612;DHT22;293;53.888;11.464;2023-03-01T14:42:49;4.40;99.90
612;DHT22;293;53.888;11.464;2023-03-01T14:45:17;4.40;99.90
612;DHT22;293;53.888;11.464;2023-03-01T14:47:45;4.50;99.90
612;DHT22;293;53.888;11.464;2023-03-01T14:50:22;4.60;99.90
612;DHT22;293;53.888;11.464;2023-03-01T14:52:52;4.40;99.90
612;DHT22;293;53.888;11.464;2023-03-01T14:55:23;4.50;99.90
612;DHT22;293;53.888;11.464;2023-03-01T14:57:52;4.50;99.90
612;DHT22;293;53.888;11.464;2023-03-01T15:00:21;4.60;99.90
612;DHT22;293;53.888;11.464;2023-03-01T15:02:50;4.60;99.90
612;DHT22;293;53.888;11.464;2023-03-01T15:05:24;4.60;99.90
612;DHT22;293;53.888;11.464;2023-03-01T15:07:52;4.60;99.90
612;DHT22;293;53.888;11.464;2023-03-01T15:10:20;4.60;99.90
612;DHT22;293;53.888;11.464;2023-03-01T15:12:47;4.50;99.90
612;DHT22;293;53.888;11.464;2023-03-01T15:15:26;4.50;99.90
612;DHT22;293;53.888;11.464;2023-03-01T15:17:58;4.50;99.90
612;DHT22;293;53.888;11.464;2023-03-01T15:20:29;4.50;99.90
612;DHT22;293;53.888;11.464;2023-03-01T15:23:01;4.40;99.90
612;DHT22;293;53.888;11.464;2023-03-01T15:25:29;4.40;99.90
612;DHT22;293;53.888;11.464;2023-03-01T15:27:58;4.40;99.90
612;DHT22;293;53.888;11.464;2023-03-01T15:30:27;4.30;99.90
612;DHT22;293;53.888;11.464;2023-03-01T15:33:17;4.30;99.90
612;DHT22;293;53.888;11.464;2023-03-01T15:35:48;4.30;99.90
612;DHT22;293;53.888;11.464;2023-03-01T15:38:31;4.20;99.90
612;DHT22;293;53.888;11.464;2023-03-01T15:41:00;4.10;99.90
612;DHT22;293;53.888;11.464;2023-03-01T15:43:39;4.10;99.90
612;DHT22;293;53.888;11.464;2023-03-01T15:46:15;4.00;99.90
612;DHT22;293;53.888;11.464;2023-03-01T15:48:45;4.00;99.90
612;DHT22;293;53.888;11.464;2023-03-01T15:51:14;4.00;99.90
612;DHT22;293;53.888;11.464;2023-03-01T15:53:42;4.00;99.90
612;DHT22;293;53.888;11.464;2023-03-01T15:56:09;4.00;99.90
612;DHT22;293;53.888;11.464;2023-03-01T15:58:36;4.00;99.90
612;DHT22;293;53.888;11.464;2023-03-01T16:01:07;4.00;99.90
612;DHT22;293;53.888;11.464;2023-03-01T16:03:38;3.90;99.90
612;DHT22;293;53.888;11.464;2023-03-01T16:06:05;3.90;99.90
612;DHT22;293;53.888;11.464;2023-03-01T16:08:33;3.90;99.90
612;DHT22;293;53.888;11.464;2023-03-01T16:11:00;3.90;99.90
612;DHT22;293;53.888;11.464;2023-03-01T16:13:30;3.90;99.90
612;DHT22;293;53.888;11.464;2023-03-01T16:15:57;3.90;99.90
612;DHT22;293;53.888;11.464;2023-03-01T16:18:24;3.90;99.90
612;DHT22;293;53.888;11.464;2023-03-01T16:20:51;4.00;99.90
612;DHT22;293;53.888;11.464;2023-03-01T16:23:19;4.00;99.90
612;DHT22;293;53.888;11.464;2023-03-01T16:25:48;3.90;99.90
612;DHT22;293;53.888;11.464;2023-03-01T16:28:15;4.00;99.90
612;DHT22;293;53.888;11.464;2023-03-01T16:30:46;4.00;99.90
612;DHT22;293;53.888;11.464;2023-03-01T16:33:14;4.10;99.90
612;DHT22;293;53.888;11.464;2023-03-01T16:35:41;4.00;99.90
612;DHT22;293;53.888;11.464;2023-03-01T16:38:09;4.00;99.90
612;DHT22;293;53.888;11.464;2023-03-01T16:40:36;3.90;99.90
612;DHT22;293;53.888;11.464;2023-03-01T16:43:04;3.80;99.90
612;DHT22;293;53.888;11.464;2023-03-01T16:45:34;3.80;99.90
612;DHT22;293;53.888;11.464;2023-03-01T16:48:02;3.80;99.90
612;DHT22;293;53.888;11.464;2023-03-01T16:50:29;3.90;99.90
612;DHT22;293;53.888;11.464;2023-03-01T16:52:55;3.80;99.90
612;DHT22;293;53.888;11.464;2023-03-01T16:55:22;3.80;99.90
612;DHT22;293;53.888;11.464;2023-03-01T16:57:49;4.00;99.90
612;DHT22;293;53.888;11.464;2023-03-01T17:00:18;3.90;99.90
612;DHT22;293;53.888;11.464;2023-03-01T17:02:46;3.90;99.90
612;DHT22;293;53.888;11.464;2023-03-01T17:05:13;3.90;99.90
612;DHT22;293;53.888;11.464;2023-03-01T17:07:39;3.90;99.90